Preview of NWS' New Version of Forecast
This preview is not operational and should not be used for support decisions.

Terminal Aerodrome Forecast (TAF)

Issued by National Weather Service (NWS)

                            
000
FTUS42 KKEY 231743
TAFMTH
TAF
KMTH 231743Z 2318/2418 12013G23KT P6SM SCT025 SCT040 SCT200
     FM240600 17010G16KT P6SM SCT020
     FM241400 21008KT P6SM VCSH SCT020 BKN060=